Time;durP1;ratioP1;P1;durP2;ratioP2;P2;SDS_P1;SDS_P2;PMS_P1;PMS_P2;Temp;Humidity;BMP_temperature;BMP_pressure;BME280_temperature;BME280_humidity;BME280_pressure;Samples;Min_cycle;Max_cycle;Signal;HPM_P1;HPM_P2
2021/01/26 00:01:17;;;;;;;10.85;2.65;;;1.10;99.90;;;;;;5032712;28;20025;-92
2021/01/26 00:03:43;;;;;;;4.40;1.85;;;1.20;99.90;;;;;;5032826;28;20088;-92
2021/01/26 00:06:09;;;;;;;6.55;2.30;;;1.20;99.90;;;;;;5032604;28;20064;-95
2021/01/26 00:08:35;;;;;;;6.10;2.53;;;1.20;99.90;;;;;;5032052;28;20241;-93
2021/01/26 00:11:03;;;;;;;5.88;2.60;;;1.10;99.90;;;;;;5031888;28;20103;-94
2021/01/26 00:13:28;;;;;;;8.05;2.60;;;1.20;99.90;;;;;;5031832;28;20021;-94
2021/01/26 00:15:54;;;;;;;5.32;2.20;;;1.20;99.90;;;;;;5032247;28;20079;-92
2021/01/26 00:18:20;;;;;;;5.35;2.28;;;1.10;99.90;;;;;;5032560;28;20055;-94
2021/01/26 00:20:46;;;;;;;6.32;2.42;;;1.10;99.90;;;;;;5031881;28;20025;-92
2021/01/26 00:23:12;;;;;;;7.57;2.40;;;1.10;99.90;;;;;;5031751;28;20025;-93
2021/01/26 00:25:39;;;;;;;8.45;2.60;;;1.10;99.90;;;;;;5031652;28;20029;-92
2021/01/26 00:28:07;;;;;;;4.80;2.05;;;1.10;99.90;;;;;;5032075;28;20034;-94
2021/01/26 00:30:36;;;;;;;7.53;2.33;;;1.10;99.90;;;;;;5031796;28;20036;-91
2021/01/26 00:33:06;;;;;;;5.28;2.15;;;1.10;99.90;;;;;;5031781;28;20038;-94
2021/01/26 00:35:32;;;;;;;4.50;2.33;;;1.10;99.90;;;;;;5032173;28;20033;-91
2021/01/26 00:37:59;;;;;;;3.88;1.92;;;1.10;99.90;;;;;;5032546;28;20118;-94
2021/01/26 00:40:25;;;;;;;8.23;2.22;;;1.10;99.90;;;;;;5033093;28;20473;-91
2021/01/26 00:42:50;;;;;;;7.53;2.40;;;1.10;99.90;;;;;;5039134;28;20036;-93
2021/01/26 00:45:17;;;;;;;7.10;3.13;;;1.10;99.90;;;;;;5043223;28;20124;-93
2021/01/26 00:47:43;;;;;;;11.15;4.38;;;1.10;99.90;;;;;;5041932;28;20492;-94
2021/01/26 00:50:09;;;;;;;15.85;5.38;;;1.00;99.90;;;;;;5038867;28;20037;-93
2021/01/26 00:52:36;;;;;;;11.30;3.38;;;1.00;99.90;;;;;;5039620;28;20040;-92
2021/01/26 00:55:03;;;;;;;11.77;3.67;;;1.00;99.90;;;;;;5035182;28;20072;-94
2021/01/26 00:57:28;;;;;;;11.48;4.97;;;1.00;99.90;;;;;;5036519;28;20036;-91
2021/01/26 00:59:54;;;;;;;7.63;3.10;;;1.00;99.90;;;;;;5032843;28;20477;-92
2021/01/26 01:02:20;;;;;;;8.02;3.47;;;1.00;99.90;;;;;;5032309;28;20036;-93
2021/01/26 01:04:47;;;;;;;9.40;3.45;;;1.00;99.90;;;;;;5031584;28;20061;-95
2021/01/26 01:07:17;;;;;;;7.68;2.90;;;0.90;99.90;;;;;;5031092;28;20021;-94
2021/01/26 01:09:43;;;;;;;6.45;3.28;;;0.90;99.90;;;;;;5031707;28;20060;-96
2021/01/26 01:12:09;;;;;;;6.75;3.92;;;0.90;99.90;;;;;;5031656;28;20083;-94
2021/01/26 01:14:34;;;;;;;6.72;3.72;;;0.80;99.90;;;;;;5032613;28;20026;-95
2021/01/26 01:17:00;;;;;;;8.20;3.70;;;0.80;99.90;;;;;;5031342;28;20026;-94
2021/01/26 01:19:27;;;;;;;10.98;3.80;;;0.80;99.90;;;;;;5032854;28;20133;-94
2021/01/26 01:21:52;;;;;;;6.95;3.05;;;0.70;99.90;;;;;;5031520;28;20481;-95
2021/01/26 01:24:18;;;;;;;8.13;2.90;;;0.70;99.90;;;;;;5034089;28;20175;-95
2021/01/26 01:26:44;;;;;;;7.07;3.13;;;0.70;99.90;;;;;;5035386;28;20033;-93
2021/01/26 01:29:10;;;;;;;10.77;3.72;;;0.70;99.90;;;;;;5036621;28;20041;-94
2021/01/26 01:31:36;;;;;;;6.25;3.50;;;0.70;99.90;;;;;;5035673;28;20108;-93
2021/01/26 01:34:02;;;;;;;6.10;3.33;;;0.70;99.90;;;;;;5036600;28;20176;-95
2021/01/26 01:36:28;;;;;;;8.65;3.60;;;0.70;99.90;;;;;;5036660;28;20035;-94
2021/01/26 01:38:53;;;;;;;7.00;3.20;;;0.70;99.90;;;;;;5035937;28;20507;-95
2021/01/26 01:41:19;;;;;;;8.07;3.38;;;0.70;99.90;;;;;;5036275;28;20035;-94
2021/01/26 01:43:49;;;;;;;8.90;3.10;;;0.70;99.90;;;;;;5038956;28;20063;-94
2021/01/26 01:46:20;;;;;;;5.97;3.17;;;0.70;99.90;;;;;;5055516;28;20154;-95
2021/01/26 01:48:48;;;;;;;9.82;3.63;;;0.70;99.90;;;;;;5055156;28;20063;-93
2021/01/26 01:51:18;;;;;;;8.32;3.08;;;0.70;99.90;;;;;;5055233;28;20033;-93
2021/01/26 01:54:12;;;;;;;9.87;3.43;;;0.70;99.90;;;;;;5055276;28;20074;-93
2021/01/26 01:56:55;;;;;;;8.07;3.78;;;0.60;99.90;;;;;;5051088;28;20268;-93
2021/01/26 01:59:27;;;;;;;5.35;3.08;;;0.60;99.90;;;;;;5055291;28;20021;-93
2021/01/26 02:01:53;;;;;;;7.97;5.38;;;0.60;99.90;;;;;;5055313;28;20035;-93
2021/01/26 02:04:22;;;;;;;10.63;3.50;;;0.60;99.90;;;;;;5055165;28;20021;-93
2021/01/26 02:06:54;;;;;;;8.23;4.03;;;0.60;99.90;;;;;;5054235;28;20051;-94
2021/01/26 02:09:31;;;;;;;8.98;3.72;;;0.50;99.90;;;;;;5054649;28;20073;-93
2021/01/26 02:11:57;;;;;;;7.28;3.58;;;0.50;99.90;;;;;;5055138;28;20208;-93
2021/01/26 02:14:26;;;;;;;5.28;3.50;;;0.60;99.90;;;;;;5054514;28;20025;-94
2021/01/26 02:16:54;;;;;;;11.80;3.90;;;0.60;99.90;;;;;;5054403;28;20025;-94
2021/01/26 02:19:44;;;;;;;6.70;3.15;;;0.50;99.90;;;;;;5054087;28;20029;-93
2021/01/26 02:22:32;;;;;;;9.43;3.22;;;0.50;99.90;;;;;;5054622;28;20029;-94
2021/01/26 02:25:07;;;;;;;5.72;2.97;;;0.60;99.90;;;;;;5054877;28;20033;-94
2021/01/26 02:27:51;;;;;;;8.65;2.80;;;0.50;99.90;;;;;;5054880;28;20082;-94
2021/01/26 02:30:28;;;;;;;8.63;3.13;;;0.50;99.90;;;;;;5054263;28;20029;-95
2021/01/26 02:33:15;;;;;;;7.15;2.60;;;0.50;99.90;;;;;;5054822;28;20060;-94
2021/01/26 02:35:49;;;;;;;4.25;2.13;;;0.50;99.90;;;;;;5052664;28;20033;-93
2021/01/26 02:38:39;;;;;;;4.72;2.45;;;0.50;99.90;;;;;;5053968;28;20049;-93
2021/01/26 02:41:33;;;;;;;6.55;2.65;;;0.50;99.90;;;;;;5054781;28;20049;-94
2021/01/26 02:44:04;;;;;;;6.07;2.35;;;0.60;99.90;;;;;;5054358;28;20115;-94
2021/01/26 02:47:02;;;;;;;5.22;2.20;;;0.60;99.90;;;;;;5054177;28;20028;-92
2021/01/26 02:49:39;;;;;;;4.63;2.10;;;0.60;99.90;;;;;;5054313;28;20049;-94
2021/01/26 02:52:08;;;;;;;6.45;2.65;;;0.60;99.90;;;;;;5054194;28;20056;-94
2021/01/26 02:55:01;;;;;;;6.25;2.13;;;0.60;99.90;;;;;;5053812;28;20115;-93
2021/01/26 02:57:35;;;;;;;5.72;2.20;;;0.60;99.90;;;;;;5054225;28;20114;-92
2021/01/26 03:00:10;;;;;;;4.28;2.20;;;0.60;99.90;;;;;;5054332;28;20040;-94
2021/01/26 03:02:48;;;;;;;3.10;1.90;;;0.60;99.90;;;;;;5054167;28;20029;-95
2021/01/26 03:05:20;;;;;;;7.03;2.63;;;0.60;99.90;;;;;;5053813;28;20028;-94
2021/01/26 03:07:55;;;;;;;5.95;2.30;;;0.60;99.90;;;;;;5053861;28;20500;-94
2021/01/26 03:10:24;;;;;;;4.88;2.35;;;0.60;99.90;;;;;;5053315;28;20037;-94
2021/01/26 03:13:01;;;;;;;4.22;2.03;;;0.60;99.90;;;;;;5053610;28;20021;-93
2021/01/26 03:15:41;;;;;;;6.47;2.00;;;0.50;99.90;;;;;;5053700;28;20043;-94
2021/01/26 03:18:11;;;;;;;6.68;2.10;;;0.50;99.90;;;;;;5054007;28;20037;-93
2021/01/26 03:20:41;;;;;;;6.47;2.00;;;0.50;99.90;;;;;;5054269;28;20044;-94
2021/01/26 03:23:12;;;;;;;3.33;1.77;;;0.50;99.90;;;;;;5054033;28;20500;-93
2021/01/26 03:25:39;;;;;;;;;;;0.50;99.90;;;;;;5054241;28;20056;-94
2021/01/26 03:28:08;;;;;;;4.40;1.30;;;0.50;99.90;;;;;;5053793;28;19919;-93
2021/01/26 03:30:37;;;;;;;2.97;1.58;;;0.50;99.90;;;;;;5053315;28;20032;-94
2021/01/26 03:33:09;;;;;;;9.00;1.30;;;0.50;99.90;;;;;;5052503;28;20029;-93
2021/01/26 03:35:34;;;;;;;5.55;1.50;;;0.50;99.90;;;;;;5053130;28;20115;-94
2021/01/26 03:38:09;;;;;;;10.38;2.42;;;0.40;99.90;;;;;;5052714;28;20519;-93
2021/01/26 03:40:35;;;;;;;9.15;3.50;;;0.40;99.90;;;;;;5053410;28;20063;-93
2021/01/26 03:43:02;;;;;;;9.30;2.97;;;0.40;99.90;;;;;;5053857;28;20048;-93
2021/01/26 03:45:27;;;;;;;8.05;2.33;;;0.40;99.90;;;;;;5053447;28;20033;-93
2021/01/26 03:48:10;;;;;;;11.18;3.20;;;0.40;99.90;;;;;;5053219;28;20162;-94
2021/01/26 03:51:17;;;;;;;8.75;2.92;;;0.40;99.90;;;;;;5053247;28;20029;-94
2021/01/26 03:54:10;;;;;;;5.45;1.80;;;0.40;99.90;;;;;;4974052;28;20087;-94
2021/01/26 03:56:54;;;;;;;6.63;1.65;;;0.40;99.90;;;;;;4973452;28;20049;-95
2021/01/26 04:00:07;;;;;;;6.28;2.15;;;0.40;99.90;;;;;;4956714;28;20046;-95
2021/01/26 04:02:56;;;;;;;4.97;1.50;;;0.40;99.90;;;;;;4951061;28;20062;-95
2021/01/26 04:05:38;;;;;;;4.38;1.70;;;0.40;99.90;;;;;;4972829;28;20045;-94
2021/01/26 04:08:24;;;;;;;5.80;1.60;;;0.40;99.90;;;;;;4957379;28;20482;-95
2021/01/26 04:10:58;;;;;;;4.60;1.70;;;0.40;99.90;;;;;;4963603;28;20049;-94
2021/01/26 04:13:30;;;;;;;2.92;1.40;;;0.40;99.90;;;;;;4962931;28;20027;-94
2021/01/26 04:15:59;;;;;;;4.85;1.30;;;0.40;99.90;;;;;;4957591;28;20037;-95
2021/01/26 04:18:30;;;;;;;4.30;1.90;;;0.30;99.90;;;;;;4957953;28;20035;-95
2021/01/26 04:20:57;;;;;;;9.05;2.70;;;0.30;99.90;;;;;;4973259;28;20093;-94
2021/01/26 04:23:25;;;;;;;8.50;2.70;;;0.30;99.90;;;;;;4960507;28;20445;-93
2021/01/26 04:25:51;;;;;;;7.82;2.58;;;0.30;99.90;;;;;;5052951;28;20155;-94
2021/01/26 04:28:33;;;;;;;9.00;2.55;;;0.30;99.90;;;;;;5052244;28;20062;-94
2021/01/26 04:30:58;;;;;;;8.70;2.55;;;0.30;99.90;;;;;;5051798;28;20029;-94
2021/01/26 04:33:24;;;;;;;4.70;1.73;;;0.30;99.90;;;;;;5052167;28;20044;-93
2021/01/26 04:35:50;;;;;;;6.55;1.67;;;0.20;99.90;;;;;;5052022;28;20108;-93
2021/01/26 04:38:15;;;;;;;5.35;2.08;;;0.30;99.90;;;;;;5051277;28;20507;-94
2021/01/26 04:40:42;;;;;;;4.13;1.77;;;0.30;99.90;;;;;;5051278;28;20057;-94
2021/01/26 04:43:30;;;;;;;6.53;1.73;;;0.30;99.90;;;;;;5050910;28;20033;-94
2021/01/26 04:46:25;;;;;;;4.72;1.67;;;0.30;99.90;;;;;;5041537;28;20053;-93
2021/01/26 04:49:14;;;;;;;3.83;1.52;;;0.30;99.90;;;;;;5041597;28;20052;-93
2021/01/26 04:51:49;;;;;;;3.28;1.30;;;0.30;99.90;;;;;;5043950;28;20029;-94
2021/01/26 04:54:17;;;;;;;4.07;1.50;;;0.30;99.90;;;;;;5040479;28;20032;-93
2021/01/26 04:57:22;;;;;;;6.68;2.03;;;0.30;99.90;;;;;;5043394;28;20056;-94
2021/01/26 05:00:15;;;;;;;2.28;1.45;;;0.30;99.90;;;;;;5045800;28;20025;-93
2021/01/26 05:03:17;;;;;;;5.00;1.83;;;0.30;99.90;;;;;;5046387;28;20048;-94
2021/01/26 05:05:47;;;;;;;3.03;1.40;;;0.30;99.90;;;;;;5035461;28;20041;-93
2021/01/26 05:08:23;;;;;;;4.28;1.60;;;0.30;99.90;;;;;;5035180;28;20038;-93
2021/01/26 05:10:53;;;;;;;4.68;1.75;;;0.30;99.90;;;;;;5034951;28;20603;-94
2021/01/26 05:13:38;;;;;;;3.95;1.85;;;0.30;99.90;;;;;;5034905;28;20053;-95
2021/01/26 05:16:10;;;;;;;4.15;1.85;;;0.30;99.90;;;;;;5035798;28;20464;-94
2021/01/26 05:19:02;;;;;;;5.03;1.70;;;0.30;99.90;;;;;;5035761;28;20017;-95
2021/01/26 05:21:45;;;;;;;4.07;1.73;;;0.30;99.90;;;;;;5035556;28;20099;-93
2021/01/26 05:24:23;;;;;;;9.35;3.67;;;0.40;99.90;;;;;;5036044;28;20112;-93
2021/01/26 05:26:49;;;;;;;4.07;1.75;;;0.40;99.90;;;;;;5035839;28;20444;-96
2021/01/26 05:29:16;;;;;;;11.60;2.47;;;0.40;99.90;;;;;;5036043;28;20037;-96
2021/01/26 05:31:46;;;;;;;8.00;2.30;;;0.50;99.90;;;;;;5035436;28;20029;-94
2021/01/26 05:34:14;;;;;;;5.82;1.80;;;0.50;99.90;;;;;;5036003;28;20532;-94
2021/01/26 05:36:44;;;;;;;8.27;1.63;;;0.50;99.90;;;;;;5035406;28;20080;-93
2021/01/26 05:39:22;;;;;;;5.50;1.58;;;0.50;99.90;;;;;;5035405;28;20140;-93
2021/01/26 05:41:47;;;;;;;4.50;1.73;;;0.60;99.90;;;;;;5035747;28;20034;-96
2021/01/26 05:44:16;;;;;;;4.45;1.85;;;0.60;99.90;;;;;;5035587;28;20032;-93
2021/01/26 05:46:46;;;;;;;5.15;2.08;;;0.60;99.90;;;;;;5034961;28;20446;-93
2021/01/26 05:49:12;;;;;;;8.30;2.15;;;0.60;99.90;;;;;;5036294;28;20081;-94
2021/01/26 05:51:41;;;;;;;8.30;1.63;;;0.50;99.90;;;;;;5034972;28;20040;-94
2021/01/26 05:54:21;;;;;;;8.65;2.00;;;0.50;99.90;;;;;;5034966;28;20037;-93
2021/01/26 05:56:52;;;;;;;5.88;2.17;;;0.40;99.90;;;;;;5035177;28;20060;-94
2021/01/26 05:59:36;;;;;;;4.97;1.95;;;0.40;99.90;;;;;;5035674;28;20033;-95
2021/01/26 06:02:22;;;;;;;9.48;2.47;;;0.40;99.90;;;;;;5035301;28;20029;-94
2021/01/26 06:04:48;;;;;;;5.10;1.52;;;0.40;99.90;;;;;;5034902;28;20037;-93
2021/01/26 06:07:24;;;;;;;3.55;1.80;;;0.30;99.90;;;;;;5035448;28;20029;-94
2021/01/26 06:09:50;;;;;;;4.97;1.63;;;0.40;99.90;;;;;;5034716;28;20079;-95
2021/01/26 06:12:18;;;;;;;5.85;3.20;;;0.40;99.90;;;;;;5035353;28;20029;-94
2021/01/26 06:15:03;;;;;;;3.78;1.60;;;0.50;99.90;;;;;;5035610;28;20098;-94
2021/01/26 06:17:34;;;;;;;2.90;1.67;;;0.50;99.90;;;;;;5041328;28;20028;-93
2021/01/26 06:20:09;;;;;;;5.13;2.28;;;0.50;99.90;;;;;;5043001;28;20241;-93
2021/01/26 06:22:35;;;;;;;6.90;2.08;;;0.50;99.90;;;;;;5046172;28;20021;-93
2021/01/26 06:25:11;;;;;;;6.07;1.95;;;0.50;99.90;;;;;;5043150;28;20037;-93
2021/01/26 06:28:05;;;;;;;3.90;1.48;;;0.50;99.90;;;;;;5043304;28;20025;-93
2021/01/26 06:30:52;;;;;;;5.97;2.00;;;0.40;99.90;;;;;;5047565;28;20025;-94
2021/01/26 06:33:37;;;;;;;9.90;2.30;;;0.40;99.90;;;;;;5045427;28;20037;-94
2021/01/26 06:36:40;;;;;;;4.60;1.90;;;0.40;99.90;;;;;;5056142;28;20025;-94
2021/01/26 06:39:14;;;;;;;6.38;3.17;;;0.30;99.90;;;;;;5045330;28;20076;-93
2021/01/26 06:42:02;;;;;;;10.07;2.80;;;0.30;99.90;;;;;;5044563;28;20104;-94
2021/01/26 06:44:46;;;;;;;4.90;1.80;;;0.30;99.90;;;;;;5044542;28;20025;-93
2021/01/26 06:47:21;;;;;;;4.70;2.17;;;0.30;99.90;;;;;;5041865;28;20029;-93
2021/01/26 06:49:58;;;;;;;8.20;2.05;;;0.30;99.90;;;;;;5042545;28;20056;-94
2021/01/26 06:52:49;;;;;;;8.65;2.10;;;0.30;99.90;;;;;;5039163;28;20038;-93
2021/01/26 06:55:52;;;;;;;4.85;1.98;;;0.30;99.90;;;;;;5043849;28;20041;-92
2021/01/26 06:58:26;;;;;;;5.35;2.10;;;0.30;99.90;;;;;;5041595;28;20036;-93
2021/01/26 07:01:17;;;;;;;5.00;2.13;;;0.30;99.90;;;;;;5041591;28;20060;-93
2021/01/26 07:04:04;;;;;;;9.35;3.00;;;0.40;99.90;;;;;;5042018;28;20029;-94
2021/01/26 07:07:04;;;;;;;6.82;2.90;;;0.30;99.90;;;;;;5044087;28;20045;-92
2021/01/26 07:09:41;;;;;;;7.78;3.45;;;0.40;99.90;;;;;;5040388;28;20481;-93
2021/01/26 07:12:19;;;;;;;6.65;3.00;;;0.30;99.90;;;;;;5043888;28;20247;-94
2021/01/26 07:15:07;;;;;;;8.88;6.25;;;0.30;99.90;;;;;;5046822;28;20020;-94
2021/01/26 07:17:42;;;;;;;9.50;2.80;;;0.20;99.90;;;;;;5040330;28;20104;-95
2021/01/26 07:20:36;;;;;;;9.23;2.80;;;0.20;99.90;;;;;;5045722;28;20048;-94
2021/01/26 07:23:39;;;;;;;5.53;2.35;;;0.20;99.90;;;;;;5049124;28;20037;-94
2021/01/26 07:26:34;;;;;;;8.35;3.85;;;0.20;99.90;;;;;;5047386;28;20119;-95
2021/01/26 07:29:08;;;;;;;5.15;2.67;;;0.10;99.90;;;;;;5051857;28;20030;-94
2021/01/26 07:31:44;;;;;;;10.55;2.65;;;0.10;99.90;;;;;;5052678;28;20027;-93
2021/01/26 07:34:29;;;;;;;10.20;3.75;;;0.10;99.90;;;;;;5046366;28;20029;-92
2021/01/26 07:37:12;;;;;;;8.00;3.60;;;0.20;99.90;;;;;;5049011;28;20024;-92
2021/01/26 07:39:41;;;;;;;11.40;3.85;;;0.10;99.90;;;;;;5047918;28;20046;-92
2021/01/26 07:42:11;;;;;;;9.88;4.30;;;0.10;99.90;;;;;;5047110;28;20032;-92
2021/01/26 07:44:46;;;;;;;14.38;5.50;;;0.10;99.90;;;;;;5012797;28;20099;-93
2021/01/26 07:47:28;;;;;;;13.93;4.82;;;0.10;99.90;;;;;;5044188;28;20060;-93
2021/01/26 07:50:51;;;;;;;10.88;4.40;;;0.10;99.90;;;;;;5049657;28;20061;-91
2021/01/26 07:53:24;;;;;;;8.25;2.40;;;0.10;99.90;;;;;;4985159;28;20504;-91
2021/01/26 07:56:00;;;;;;;9.23;2.55;;;0.10;99.90;;;;;;4972190;28;20022;-92
2021/01/26 07:58:26;;;;;;;6.80;2.28;;;0.10;99.90;;;;;;4979434;28;20438;-91
2021/01/26 08:00:57;;;;;;;9.40;2.42;;;0.10;99.90;;;;;;4965649;28;20030;-92
2021/01/26 08:03:27;;;;;;;5.95;1.80;;;0.20;99.90;;;;;;4976076;28;20030;-92
2021/01/26 08:05:55;;;;;;;4.70;2.55;;;0.20;99.90;;;;;;4975401;28;20038;-92
2021/01/26 08:08:35;;;;;;;5.82;2.60;;;0.20;99.90;;;;;;4992008;28;20030;-89
2021/01/26 08:11:21;;;;;;;8.15;3.03;;;0.20;99.90;;;;;;4975554;28;20049;-91
2021/01/26 08:13:55;;;;;;;7.97;2.15;;;0.20;99.90;;;;;;4976389;28;20050;-95
2021/01/26 08:16:34;;;;;;;5.03;2.65;;;0.30;99.90;;;;;;4977399;28;20034;-93
2021/01/26 08:19:02;;;;;;;3.42;1.83;;;0.30;99.90;;;;;;4968871;28;20097;-91
2021/01/26 08:21:41;;;;;;;6.35;2.60;;;0.30;99.90;;;;;;4973062;28;20498;-92
2021/01/26 08:24:09;;;;;;;6.43;2.65;;;0.30;99.90;;;;;;5019519;28;20496;-93
2021/01/26 08:26:35;;;;;;;7.22;3.70;;;0.30;99.90;;;;;;5031899;28;20033;-90
2021/01/26 08:29:01;;;;;;;4.28;2.50;;;0.40;99.90;;;;;;5042682;28;20033;-93
2021/01/26 08:31:36;;;;;;;8.90;2.38;;;0.50;99.90;;;;;;5033484;28;20034;-94
2021/01/26 08:34:20;;;;;;;5.43;2.75;;;0.50;99.90;;;;;;5032538;28;20057;-94
2021/01/26 08:37:06;;;;;;;7.15;2.63;;;0.60;99.90;;;;;;5032503;28;20060;-94
2021/01/26 08:39:45;;;;;;;5.63;2.40;;;0.60;99.90;;;;;;5032462;28;20144;-91
2021/01/26 08:42:32;;;;;;;7.45;2.10;;;0.70;99.90;;;;;;5032839;28;20033;-95
2021/01/26 08:44:57;;;;;;;7.72;2.15;;;0.80;99.90;;;;;;5035402;28;20049;-94
2021/01/26 08:47:45;;;;;;;3.53;2.35;;;0.90;99.90;;;;;;5033349;28;20036;-94
2021/01/26 08:50:33;;;;;;;5.63;2.60;;;0.90;99.90;;;;;;5033443;28;20037;-94
2021/01/26 08:53:33;;;;;;;4.22;2.25;;;0.90;99.90;;;;;;5031831;28;20034;-94
2021/01/26 08:56:01;;;;;;;4.18;1.90;;;1.00;99.90;;;;;;5033867;28;20120;-94
2021/01/26 08:58:39;;;;;;;3.47;1.90;;;1.00;99.90;;;;;;5032748;28;20563;-93
2021/01/26 09:01:11;;;;;;;4.80;2.30;;;1.10;99.90;;;;;;5032769;28;20026;-94
2021/01/26 09:03:38;;;;;;;6.38;2.30;;;1.10;99.90;;;;;;5032984;28;20029;-95
2021/01/26 09:06:07;;;;;;;17.88;6.30;;;1.10;99.90;;;;;;5032133;28;20485;-94
2021/01/26 09:08:47;;;;;;;11.13;5.78;;;1.20;99.90;;;;;;5035196;28;20041;-94
2021/01/26 09:11:32;;;;;;;18.90;7.13;;;1.20;99.90;;;;;;5032780;28;20052;-94
2021/01/26 09:14:36;;;;;;;13.20;4.03;;;1.30;99.90;;;;;;5032298;28;20481;-94
2021/01/26 09:17:35;;;;;;;11.48;4.45;;;1.30;99.90;;;;;;5031876;28;20115;-93
2021/01/26 09:20:31;;;;;;;12.73;5.40;;;1.30;99.90;;;;;;5031205;28;20033;-94
2021/01/26 09:23:05;;;;;;;11.05;3.22;;;1.30;99.90;;;;;;5019360;28;20083;-93
2021/01/26 09:25:40;;;;;;;8.20;4.25;;;1.40;99.90;;;;;;5031350;28;20029;-94
2021/01/26 09:28:10;;;;;;;8.02;3.47;;;1.40;99.90;;;;;;5031275;28;20029;-94
2021/01/26 09:30:41;;;;;;;12.57;4.40;;;1.50;99.90;;;;;;5031509;28;20072;-94
2021/01/26 09:33:10;;;;;;;6.72;3.45;;;1.50;99.90;;;;;;5031397;28;20116;-95
2021/01/26 09:36:05;;;;;;;6.50;2.70;;;1.50;99.90;;;;;;5031399;28;20120;-94
2021/01/26 09:38:35;;;;;;;5.88;2.78;;;1.50;99.90;;;;;;5026055;28;20046;-94
2021/01/26 09:41:14;;;;;;;7.07;3.03;;;1.60;99.90;;;;;;5031119;28;20034;-93
2021/01/26 09:43:45;;;;;;;9.35;3.08;;;1.60;99.90;;;;;;5031319;28;20090;-93
2021/01/26 09:46:36;;;;;;;5.28;2.60;;;1.60;99.90;;;;;;5034730;28;20033;-94
2021/01/26 09:49:34;;;;;;;4.15;2.72;;;1.60;99.90;;;;;;5034438;28;20080;-94
2021/01/26 09:52:07;;;;;;;4.85;2.90;;;1.70;99.90;;;;;;4976396;28;20033;-93
2021/01/26 09:54:39;;;;;;;5.80;2.80;;;1.70;99.90;;;;;;5036619;28;20025;-94
2021/01/26 09:57:06;;;;;;;5.00;2.75;;;1.70;99.90;;;;;;5053175;28;20059;-93
2021/01/26 09:59:35;;;;;;;8.13;2.85;;;1.70;99.90;;;;;;5054171;28;20396;-95
2021/01/26 10:02:05;;;;;;;5.30;2.95;;;1.80;99.90;;;;;;5041545;28;20032;-94
2021/01/26 10:04:34;;;;;;;3.40;2.73;;;1.80;99.90;;;;;;5061305;28;20025;-94
2021/01/26 10:07:04;;;;;;;6.55;3.03;;;1.80;99.90;;;;;;5052704;28;20021;-94
2021/01/26 10:09:40;;;;;;;10.13;3.70;;;1.80;99.90;;;;;;5053570;28;20515;-94
2021/01/26 10:12:33;;;;;;;5.65;3.75;;;1.80;99.90;;;;;;5053586;28;20112;-94
2021/01/26 10:15:23;;;;;;;8.68;3.30;;;1.80;99.90;;;;;;5053309;28;20025;-94
2021/01/26 10:17:53;;;;;;;8.30;3.38;;;1.80;99.90;;;;;;5054079;28;20029;-95
2021/01/26 10:20:28;;;;;;;7.72;3.78;;;1.90;99.90;;;;;;5053549;28;20063;-94
2021/01/26 10:23:09;;;;;;;6.00;2.92;;;1.90;99.90;;;;;;5053179;28;20652;-94
2021/01/26 10:25:36;;;;;;;5.82;3.22;;;1.90;99.90;;;;;;5053804;28;20123;-95
2021/01/26 10:28:28;;;;;;;5.10;3.80;;;1.90;99.90;;;;;;5053944;28;20025;-94
2021/01/26 10:30:55;;;;;;;9.10;4.07;;;2.00;99.90;;;;;;5048898;28;20132;-95
2021/01/26 10:33:39;;;;;;;7.68;3.60;;;2.00;99.90;;;;;;5053815;28;20103;-94
2021/01/26 10:36:23;;;;;;;7.43;4.00;;;2.00;99.90;;;;;;5054542;28;20419;-95
2021/01/26 10:38:48;;;;;;;4.32;3.17;;;2.10;99.90;;;;;;5048607;28;20505;-94
2021/01/26 10:41:23;;;;;;;8.10;3.63;;;2.10;99.90;;;;;;5035221;28;20021;-95
2021/01/26 10:44:10;;;;;;;10.82;3.90;;;2.20;99.90;;;;;;5038366;28;20030;-94
2021/01/26 10:46:40;;;;;;;5.55;3.22;;;2.20;99.90;;;;;;5043624;28;20025;-92
2021/01/26 10:49:30;;;;;;;8.57;3.92;;;2.20;99.90;;;;;;5048122;28;20041;-94
2021/01/26 10:52:01;;;;;;;5.55;3.20;;;2.20;99.90;;;;;;5059945;28;20056;-95
2021/01/26 10:54:27;;;;;;;10.98;4.45;;;2.20;99.90;;;;;;5057347;28;20028;-94
2021/01/26 10:56:53;;;;;;;6.93;4.07;;;2.30;99.90;;;;;;5049524;28;20052;-94
2021/01/26 10:59:19;;;;;;;7.03;3.95;;;2.30;99.90;;;;;;5048894;28;20483;-95
2021/01/26 11:01:45;;;;;;;10.90;4.20;;;2.30;99.90;;;;;;5051199;28;20031;-96
2021/01/26 11:04:12;;;;;;;7.97;4.10;;;2.30;99.90;;;;;;5047520;28;20468;-95
2021/01/26 11:06:38;;;;;;;10.80;4.18;;;2.30;99.90;;;;;;5044910;28;20063;-94
2021/01/26 11:09:05;;;;;;;5.30;3.40;;;2.30;99.90;;;;;;5039872;28;20026;-94
2021/01/26 11:11:31;;;;;;;6.45;3.80;;;2.30;99.90;;;;;;5042024;28;20028;-95
2021/01/26 11:13:59;;;;;;;7.55;3.38;;;2.40;99.90;;;;;;5043070;28;20024;-92
2021/01/26 11:16:25;;;;;;;12.73;5.85;;;2.40;99.90;;;;;;5041738;28;20033;-94
2021/01/26 11:18:52;;;;;;;9.95;4.72;;;2.40;99.90;;;;;;5043646;28;20112;-94
2021/01/26 11:21:17;;;;;;;9.98;4.25;;;2.50;99.90;;;;;;5044462;28;20025;-95
2021/01/26 11:23:44;;;;;;;8.93;4.03;;;2.40;99.90;;;;;;5046882;28;20036;-94
2021/01/26 11:26:14;;;;;;;7.65;5.38;;;2.50;99.90;;;;;;5040653;28;20017;-93
2021/01/26 11:28:40;;;;;;;15.18;7.78;;;2.50;99.90;;;;;;5041873;28;20586;-94
2021/01/26 11:31:05;;;;;;;6.85;3.90;;;2.50;99.90;;;;;;5050589;28;20029;-95
2021/01/26 11:33:31;;;;;;;17.13;9.15;;;2.50;99.90;;;;;;5043082;28;20174;-95
2021/01/26 11:35:58;;;;;;;19.13;8.50;;;2.50;99.90;;;;;;5041308;28;20024;-94
2021/01/26 11:38:25;;;;;;;14.32;6.93;;;2.60;99.90;;;;;;5049726;28;20431;-94
2021/01/26 11:40:50;;;;;;;19.52;8.88;;;2.60;99.90;;;;;;5038514;28;20029;-94
2021/01/26 11:43:17;;;;;;;20.00;9.27;;;2.60;99.90;;;;;;5032725;28;20028;-94
2021/01/26 11:45:44;;;;;;;17.63;8.55;;;2.60;99.90;;;;;;5033550;28;20026;-94
2021/01/26 11:48:11;;;;;;;17.25;8.82;;;2.60;99.90;;;;;;5033596;28;20049;-93
2021/01/26 11:50:37;;;;;;;14.40;7.68;;;2.70;99.90;;;;;;5038389;28;20029;-95
2021/01/26 11:53:10;;;;;;;14.38;6.60;;;2.70;99.90;;;;;;5050543;28;20021;-94
2021/01/26 11:55:36;;;;;;;12.07;6.03;;;2.70;99.90;;;;;;5030453;28;20379;-93
2021/01/26 11:58:03;;;;;;;15.48;6.47;;;2.70;99.90;;;;;;5046821;28;20480;-96
2021/01/26 12:00:32;;;;;;;13.90;6.15;;;2.80;99.90;;;;;;5051272;28;20043;-95
2021/01/26 12:02:58;;;;;;;10.40;5.53;;;2.80;99.90;;;;;;5052887;28;20036;-95
2021/01/26 12:05:30;;;;;;;10.73;5.72;;;2.80;99.90;;;;;;5053159;28;20059;-93
2021/01/26 12:07:56;;;;;;;13.02;6.22;;;2.80;99.90;;;;;;5052666;28;20036;-94
2021/01/26 12:10:23;;;;;;;15.95;7.15;;;2.90;99.90;;;;;;5052003;28;20025;-93
2021/01/26 12:12:50;;;;;;;10.75;5.53;;;2.90;99.90;;;;;;5052606;28;20082;-93
2021/01/26 12:15:23;;;;;;;8.38;5.10;;;3.00;99.90;;;;;;5052070;28;20028;-96
2021/01/26 12:17:48;;;;;;;12.63;6.30;;;3.00;99.90;;;;;;5052280;28;20032;-93
2021/01/26 12:20:15;;;;;;;17.63;7.30;;;3.00;99.90;;;;;;5052152;28;20029;-94
2021/01/26 12:22:40;;;;;;;11.43;6.65;;;3.00;99.90;;;;;;5052556;28;20032;-95
2021/01/26 12:25:07;;;;;;;12.80;6.53;;;3.10;99.90;;;;;;5053076;28;20033;-93
2021/01/26 12:27:33;;;;;;;15.70;7.07;;;3.10;99.90;;;;;;5051333;28;20416;-96
2021/01/26 12:29:59;;;;;;;11.90;6.93;;;3.10;99.90;;;;;;5056464;28;20037;-94
2021/01/26 12:32:25;;;;;;;16.65;7.97;;;3.10;99.90;;;;;;5055400;28;20446;-95
2021/01/26 12:34:50;;;;;;;13.40;7.15;;;3.10;99.90;;;;;;5052233;28;20443;-95
2021/01/26 12:37:18;;;;;;;16.27;8.10;;;3.10;99.90;;;;;;5052121;28;20048;-94
2021/01/26 12:39:44;;;;;;;14.85;8.13;;;3.10;99.90;;;;;;5073997;28;20078;-95
2021/01/26 12:42:10;;;;;;;19.08;9.30;;;3.10;99.90;;;;;;5075447;28;20459;-94
2021/01/26 12:44:35;;;;;;;14.43;8.90;;;3.10;99.90;;;;;;5076379;28;20032;-94
2021/01/26 12:47:01;;;;;;;18.42;9.10;;;3.20;99.90;;;;;;5075636;28;20066;-94
2021/01/26 12:49:27;;;;;;;19.52;9.40;;;3.20;99.90;;;;;;5072055;28;20044;-95
2021/01/26 12:51:52;;;;;;;15.27;7.90;;;3.20;99.90;;;;;;5051497;28;20380;-95
2021/01/26 12:54:20;;;;;;;16.73;8.55;;;3.20;99.90;;;;;;5055469;28;20119;-93
2021/01/26 12:56:46;;;;;;;18.05;8.07;;;3.20;99.90;;;;;;5055744;28;20120;-94
2021/01/26 12:59:11;;;;;;;19.23;8.68;;;3.20;99.90;;;;;;5055893;28;20126;-95
2021/01/26 13:01:38;;;;;;;18.35;8.38;;;3.20;99.90;;;;;;5055936;28;20029;-95
2021/01/26 13:04:04;;;;;;;19.30;7.50;;;3.30;99.90;;;;;;5055591;28;20021;-95
2021/01/26 13:06:30;;;;;;;13.38;8.48;;;3.30;99.90;;;;;;5054846;28;20031;-95
2021/01/26 13:08:55;;;;;;;12.43;6.97;;;3.30;99.90;;;;;;5055291;28;20044;-94
2021/01/26 13:11:21;;;;;;;14.68;7.70;;;3.30;99.90;;;;;;5056161;28;20039;-95
2021/01/26 13:13:47;;;;;;;14.75;7.60;;;3.30;99.90;;;;;;5056037;28;20043;-94
2021/01/26 13:16:13;;;;;;;13.68;6.72;;;3.40;99.90;;;;;;5054787;28;20123;-95
2021/01/26 13:18:38;;;;;;;12.35;6.88;;;3.30;99.90;;;;;;5057688;28;20025;-95
2021/01/26 13:21:05;;;;;;;10.88;5.93;;;3.30;99.90;;;;;;5075817;28;20422;-95
2021/01/26 13:23:30;;;;;;;13.82;6.28;;;3.30;99.90;;;;;;5061661;28;20111;-95
2021/01/26 13:25:56;;;;;;;9.38;5.50;;;3.30;99.90;;;;;;5059480;28;20529;-94
2021/01/26 13:28:21;;;;;;;7.60;4.82;;;3.30;99.90;;;;;;5059102;28;20071;-95
2021/01/26 13:30:48;;;;;;;12.70;5.80;;;3.20;99.90;;;;;;5059369;28;20119;-93